Terminal Aerodrome Forecast
Issued by NWS San Angelo, TX

Home | Current Version | Previous Version | Text Only | Print | Product List | Glossary On
Versions: 1 2 3 4 5 6 7 8 9 10 11 12 13 14 15 16 17 18 19 20 21 22 23 24
000
FTUS44 KSJT 291800 AAA
TAFABI
TAF AMD
KABI 291809Z 2918/3018 15010KT P6SM BKN035
      TEMPO 2921/2924 VRB25G45KT TSRA BKN050CB
     FM300000 13007KT P6SM FEW250 PROB30 3003/3006 P6SM TS BKN050CB
     FM300800 14008KT P6SM FEW050=

USA.gov is the U.S. government's official web portal to all federal, state and local government web resources and services.